sensor_id;sensor_type;location;lat;lon;timestamp;P1;durP1;ratioP1;P2;durP2;ratioP2
44143;SDS011;68165;51.920;4.492;2023-05-16T00:01:24;15.33;;;2.20;;
44143;SDS011;68165;51.920;4.492;2023-05-16T00:03:54;14.10;;;2.22;;
44143;SDS011;68165;51.920;4.492;2023-05-16T00:06:19;14.50;;;2.90;;
44143;SDS011;68165;51.920;4.492;2023-05-16T00:08:45;12.73;;;2.47;;
44143;SDS011;68165;51.920;4.492;2023-05-16T00:11:12;14.35;;;2.20;;
44143;SDS011;68165;51.920;4.492;2023-05-16T00:13:37;11.90;;;2.20;;
44143;SDS011;68165;51.920;4.492;2023-05-16T00:16:06;13.73;;;2.22;;
44143;SDS011;68165;51.920;4.492;2023-05-16T00:18:31;13.63;;;2.13;;
44143;SDS011;68165;51.920;4.492;2023-05-16T00:20:57;12.20;;;2.08;;
44143;SDS011;68165;51.920;4.492;2023-05-16T00:23:23;12.68;;;2.15;;
44143;SDS011;68165;51.920;4.492;2023-05-16T00:25:48;19.27;;;2.83;;
44143;SDS011;68165;51.920;4.492;2023-05-16T00:28:13;14.20;;;2.57;;
44143;SDS011;68165;51.920;4.492;2023-05-16T00:30:39;17.43;;;2.07;;
44143;SDS011;68165;51.920;4.492;2023-05-16T00:33:05;14.07;;;2.40;;
44143;SDS011;68165;51.920;4.492;2023-05-16T00:35:30;12.73;;;2.30;;
44143;SDS011;68165;51.920;4.492;2023-05-16T00:37:55;15.68;;;2.30;;
44143;SDS011;68165;51.920;4.492;2023-05-16T00:40:21;17.58;;;2.58;;
44143;SDS011;68165;51.920;4.492;2023-05-16T00:42:46;10.60;;;2.22;;
44143;SDS011;68165;51.920;4.492;2023-05-16T00:45:12;13.10;;;2.17;;
44143;SDS011;68165;51.920;4.492;2023-05-16T00:47:37;16.15;;;2.08;;
44143;SDS011;68165;51.920;4.492;2023-05-16T00:50:02;11.13;;;1.83;;
44143;SDS011;68165;51.920;4.492;2023-05-16T00:52:28;12.27;;;2.15;;
44143;SDS011;68165;51.920;4.492;2023-05-16T00:54:55;10.82;;;1.92;;
44143;SDS011;68165;51.920;4.492;2023-05-16T00:57:21;14.73;;;1.92;;
44143;SDS011;68165;51.920;4.492;2023-05-16T00:59:46;13.25;;;2.50;;
44143;SDS011;68165;51.920;4.492;2023-05-16T01:02:12;17.23;;;1.97;;
44143;SDS011;68165;51.920;4.492;2023-05-16T01:04:38;9.13;;;2.35;;
44143;SDS011;68165;51.920;4.492;2023-05-16T01:07:04;13.63;;;2.45;;
44143;SDS011;68165;51.920;4.492;2023-05-16T01:09:30;12.30;;;2.63;;
44143;SDS011;68165;51.920;4.492;2023-05-16T01:17:12;10.13;;;1.85;;
44143;SDS011;68165;51.920;4.492;2023-05-16T01:28:12;20.25;;;2.47;;
44143;SDS011;68165;51.920;4.492;2023-05-16T01:30:40;10.00;;;1.52;;
44143;SDS011;68165;51.920;4.492;2023-05-16T01:33:06;11.80;;;1.77;;
44143;SDS011;68165;51.920;4.492;2023-05-16T01:35:32;12.88;;;2.28;;
44143;SDS011;68165;51.920;4.492;2023-05-16T01:42:59;10.82;;;1.98;;
44143;SDS011;68165;51.920;4.492;2023-05-16T01:45:31;10.23;;;1.30;;
44143;SDS011;68165;51.920;4.492;2023-05-16T01:48:09;14.82;;;1.58;;
44143;SDS011;68165;51.920;4.492;2023-05-16T01:50:43;13.98;;;2.25;;
44143;SDS011;68165;51.920;4.492;2023-05-16T01:53:13;16.55;;;2.03;;
44143;SDS011;68165;51.920;4.492;2023-05-16T01:55:42;12.40;;;2.17;;
44143;SDS011;68165;51.920;4.492;2023-05-16T01:58:10;13.55;;;2.10;;
44143;SDS011;68165;51.920;4.492;2023-05-16T02:00:37;9.80;;;1.30;;
44143;SDS011;68165;51.920;4.492;2023-05-16T02:03:04;11.63;;;2.17;;
44143;SDS011;68165;51.920;4.492;2023-05-16T02:05:30;10.23;;;1.60;;
44143;SDS011;68165;51.920;4.492;2023-05-16T02:07:56;10.20;;;2.45;;
44143;SDS011;68165;51.920;4.492;2023-05-16T02:10:21;7.22;;;1.70;;
44143;SDS011;68165;51.920;4.492;2023-05-16T02:12:48;9.23;;;1.50;;
44143;SDS011;68165;51.920;4.492;2023-05-16T02:15:14;11.77;;;2.38;;
44143;SDS011;68165;51.920;4.492;2023-05-16T02:17:39;7.00;;;1.10;;
44143;SDS011;68165;51.920;4.492;2023-05-16T02:20:05;8.30;;;1.30;;
44143;SDS011;68165;51.920;4.492;2023-05-16T02:22:34;14.63;;;1.58;;
44143;SDS011;68165;51.920;4.492;2023-05-16T02:25:00;8.35;;;1.23;;
44143;SDS011;68165;51.920;4.492;2023-05-16T02:27:27;8.73;;;1.60;;
44143;SDS011;68165;51.920;4.492;2023-05-16T02:29:52;8.63;;;1.85;;
44143;SDS011;68165;51.920;4.492;2023-05-16T02:32:18;12.00;;;1.40;;
44143;SDS011;68165;51.920;4.492;2023-05-16T02:34:43;10.00;;;1.63;;
44143;SDS011;68165;51.920;4.492;2023-05-16T02:37:08;9.95;;;1.58;;
44143;SDS011;68165;51.920;4.492;2023-05-16T02:39:34;7.53;;;1.52;;
44143;SDS011;68165;51.920;4.492;2023-05-16T02:41:59;7.88;;;1.58;;
44143;SDS011;68165;51.920;4.492;2023-05-16T02:44:25;9.05;;;1.50;;
44143;SDS011;68165;51.920;4.492;2023-05-16T02:46:50;15.55;;;1.88;;
44143;SDS011;68165;51.920;4.492;2023-05-16T02:49:16;12.07;;;1.55;;
44143;SDS011;68165;51.920;4.492;2023-05-16T02:51:41;6.45;;;1.45;;
44143;SDS011;68165;51.920;4.492;2023-05-16T02:54:06;8.55;;;1.70;;
44143;SDS011;68165;51.920;4.492;2023-05-16T02:56:33;6.03;;;1.92;;
44143;SDS011;68165;51.920;4.492;2023-05-16T02:58:59;3.85;;;1.00;;
44143;SDS011;68165;51.920;4.492;2023-05-16T03:01:25;8.32;;;2.03;;
44143;SDS011;68165;51.920;4.492;2023-05-16T03:03:51;12.73;;;1.70;;
44143;SDS011;68165;51.920;4.492;2023-05-16T03:06:16;12.70;;;2.22;;
44143;SDS011;68165;51.920;4.492;2023-05-16T03:08:42;15.13;;;2.10;;
44143;SDS011;68165;51.920;4.492;2023-05-16T03:11:07;7.13;;;1.38;;
44143;SDS011;68165;51.920;4.492;2023-05-16T03:13:32;11.50;;;1.95;;
44143;SDS011;68165;51.920;4.492;2023-05-16T03:15:58;9.23;;;1.95;;
44143;SDS011;68165;51.920;4.492;2023-05-16T03:18:23;9.95;;;1.40;;
44143;SDS011;68165;51.920;4.492;2023-05-16T03:20:50;10.75;;;2.00;;
44143;SDS011;68165;51.920;4.492;2023-05-16T03:23:16;7.35;;;1.40;;
44143;SDS011;68165;51.920;4.492;2023-05-16T03:25:43;11.02;;;1.63;;
44143;SDS011;68165;51.920;4.492;2023-05-16T03:28:10;13.65;;;1.55;;
44143;SDS011;68165;51.920;4.492;2023-05-16T03:30:36;10.65;;;1.25;;
44143;SDS011;68165;51.920;4.492;2023-05-16T03:33:02;5.38;;;1.95;;
44143;SDS011;68165;51.920;4.492;2023-05-16T03:35:28;12.73;;;1.50;;
44143;SDS011;68165;51.920;4.492;2023-05-16T03:37:55;29.70;;;2.75;;
44143;SDS011;68165;51.920;4.492;2023-05-16T03:40:20;9.10;;;1.50;;
44143;SDS011;68165;51.920;4.492;2023-05-16T03:42:46;6.45;;;1.40;;
44143;SDS011;68165;51.920;4.492;2023-05-16T03:45:11;14.38;;;2.00;;
44143;SDS011;68165;51.920;4.492;2023-05-16T03:47:37;8.45;;;1.13;;
44143;SDS011;68165;51.920;4.492;2023-05-16T03:50:04;7.00;;;1.50;;
44143;SDS011;68165;51.920;4.492;2023-05-16T03:52:30;6.63;;;1.10;;
44143;SDS011;68165;51.920;4.492;2023-05-16T03:54:55;8.85;;;1.90;;
44143;SDS011;68165;51.920;4.492;2023-05-16T03:57:21;8.82;;;1.67;;
44143;SDS011;68165;51.920;4.492;2023-05-16T03:59:46;8.63;;;1.80;;
44143;SDS011;68165;51.920;4.492;2023-05-16T04:02:11;4.03;;;1.05;;
44143;SDS011;68165;51.920;4.492;2023-05-16T04:04:37;8.15;;;1.65;;
44143;SDS011;68165;51.920;4.492;2023-05-16T04:07:02;10.25;;;1.63;;
44143;SDS011;68165;51.920;4.492;2023-05-16T04:09:28;13.18;;;1.75;;
44143;SDS011;68165;51.920;4.492;2023-05-16T04:11:53;14.85;;;1.70;;
44143;SDS011;68165;51.920;4.492;2023-05-16T04:14:24;8.27;;;2.28;;
44143;SDS011;68165;51.920;4.492;2023-05-16T04:16:50;8.32;;;1.92;;
44143;SDS011;68165;51.920;4.492;2023-05-16T04:19:15;6.28;;;1.20;;
44143;SDS011;68165;51.920;4.492;2023-05-16T04:21:41;9.10;;;1.80;;
44143;SDS011;68165;51.920;4.492;2023-05-16T04:24:06;5.25;;;1.08;;
44143;SDS011;68165;51.920;4.492;2023-05-16T04:26:32;12.98;;;1.88;;
44143;SDS011;68165;51.920;4.492;2023-05-16T04:28:57;5.75;;;1.00;;
44143;SDS011;68165;51.920;4.492;2023-05-16T04:31:24;8.48;;;1.38;;
44143;SDS011;68165;51.920;4.492;2023-05-16T04:33:49;5.85;;;1.15;;
44143;SDS011;68165;51.920;4.492;2023-05-16T04:36:15;14.02;;;1.40;;
44143;SDS011;68165;51.920;4.492;2023-05-16T04:38:40;13.30;;;1.40;;
44143;SDS011;68165;51.920;4.492;2023-05-16T04:41:06;8.98;;;2.03;;
44143;SDS011;68165;51.920;4.492;2023-05-16T04:43:32;7.38;;;1.10;;
44143;SDS011;68165;51.920;4.492;2023-05-16T04:45:57;8.50;;;1.45;;
44143;SDS011;68165;51.920;4.492;2023-05-16T04:48:23;10.65;;;2.05;;
44143;SDS011;68165;51.920;4.492;2023-05-16T04:50:48;10.75;;;1.30;;
44143;SDS011;68165;51.920;4.492;2023-05-16T04:53:14;8.48;;;1.20;;
44143;SDS011;68165;51.920;4.492;2023-05-16T04:55:39;8.57;;;1.60;;
44143;SDS011;68165;51.920;4.492;2023-05-16T04:58:05;12.70;;;1.50;;
44143;SDS011;68165;51.920;4.492;2023-05-16T05:00:30;7.05;;;1.40;;
44143;SDS011;68165;51.920;4.492;2023-05-16T05:02:56;7.45;;;1.83;;
44143;SDS011;68165;51.920;4.492;2023-05-16T05:05:21;8.20;;;1.40;;
44143;SDS011;68165;51.920;4.492;2023-05-16T05:07:47;10.35;;;1.52;;
44143;SDS011;68165;51.920;4.492;2023-05-16T05:10:12;5.85;;;1.23;;
44143;SDS011;68165;51.920;4.492;2023-05-16T05:12:38;6.25;;;0.90;;
44143;SDS011;68165;51.920;4.492;2023-05-16T05:15:04;8.68;;;1.40;;
44143;SDS011;68165;51.920;4.492;2023-05-16T05:17:30;7.93;;;1.02;;
44143;SDS011;68165;51.920;4.492;2023-05-16T05:19:56;6.22;;;1.50;;
44143;SDS011;68165;51.920;4.492;2023-05-16T05:22:21;6.25;;;1.08;;
44143;SDS011;68165;51.920;4.492;2023-05-16T05:24:47;10.30;;;1.50;;
44143;SDS011;68165;51.920;4.492;2023-05-16T05:27:12;9.70;;;1.42;;
44143;SDS011;68165;51.920;4.492;2023-05-16T05:29:38;10.38;;;1.55;;
44143;SDS011;68165;51.920;4.492;2023-05-16T05:32:03;8.43;;;1.40;;
44143;SDS011;68165;51.920;4.492;2023-05-16T05:34:29;5.15;;;1.30;;
44143;SDS011;68165;51.920;4.492;2023-05-16T05:36:55;4.97;;;1.25;;
44143;SDS011;68165;51.920;4.492;2023-05-16T05:39:20;8.23;;;1.35;;
44143;SDS011;68165;51.920;4.492;2023-05-16T05:41:46;9.10;;;1.48;;
44143;SDS011;68165;51.920;4.492;2023-05-16T05:44:11;11.00;;;1.83;;
44143;SDS011;68165;51.920;4.492;2023-05-16T05:46:36;6.47;;;1.25;;
44143;SDS011;68165;51.920;4.492;2023-05-16T05:49:02;11.50;;;1.23;;
44143;SDS011;68165;51.920;4.492;2023-05-16T05:51:28;13.15;;;1.48;;
44143;SDS011;68165;51.920;4.492;2023-05-16T05:53:54;8.30;;;1.83;;
44143;SDS011;68165;51.920;4.492;2023-05-16T05:56:20;9.60;;;2.00;;
44143;SDS011;68165;51.920;4.492;2023-05-16T05:58:45;10.98;;;1.40;;
44143;SDS011;68165;51.920;4.492;2023-05-16T06:01:11;8.00;;;2.28;;
44143;SDS011;68165;51.920;4.492;2023-05-16T06:03:36;4.40;;;1.23;;
44143;SDS011;68165;51.920;4.492;2023-05-16T06:06:03;6.40;;;1.25;;
44143;SDS011;68165;51.920;4.492;2023-05-16T06:08:28;6.95;;;0.77;;
44143;SDS011;68165;51.920;4.492;2023-05-16T06:10:54;3.50;;;0.68;;
44143;SDS011;68165;51.920;4.492;2023-05-16T06:13:19;5.70;;;1.25;;
44143;SDS011;68165;51.920;4.492;2023-05-16T06:15:49;8.38;;;1.17;;
44143;SDS011;68165;51.920;4.492;2023-05-16T06:18:18;6.55;;;0.80;;
44143;SDS011;68165;51.920;4.492;2023-05-16T06:20:43;7.32;;;0.80;;
44143;SDS011;68165;51.920;4.492;2023-05-16T06:23:09;8.77;;;1.02;;
44143;SDS011;68165;51.920;4.492;2023-05-16T06:25:34;5.28;;;0.98;;
44143;SDS011;68165;51.920;4.492;2023-05-16T06:28:00;4.05;;;1.05;;
44143;SDS011;68165;51.920;4.492;2023-05-16T06:30:26;13.73;;;1.33;;
44143;SDS011;68165;51.920;4.492;2023-05-16T06:32:52;6.05;;;0.90;;
44143;SDS011;68165;51.920;4.492;2023-05-16T06:35:17;7.57;;;0.90;;
44143;SDS011;68165;51.920;4.492;2023-05-16T06:37:42;12.75;;;0.90;;
44143;SDS011;68165;51.920;4.492;2023-05-16T06:40:08;11.25;;;1.20;;
44143;SDS011;68165;51.920;4.492;2023-05-16T06:42:34;7.47;;;0.90;;
44143;SDS011;68165;51.920;4.492;2023-05-16T06:44:59;3.60;;;0.63;;
44143;SDS011;68165;51.920;4.492;2023-05-16T06:47:25;9.30;;;2.35;;
44143;SDS011;68165;51.920;4.492;2023-05-16T06:49:50;7.55;;;1.20;;
44143;SDS011;68165;51.920;4.492;2023-05-16T06:52:15;6.50;;;1.58;;
44143;SDS011;68165;51.920;4.492;2023-05-16T06:54:41;3.38;;;0.65;;
44143;SDS011;68165;51.920;4.492;2023-05-16T06:57:06;11.13;;;1.65;;
44143;SDS011;68165;51.920;4.492;2023-05-16T06:59:33;9.35;;;1.13;;
44143;SDS011;68165;51.920;4.492;2023-05-16T07:02:00;10.98;;;1.55;;
44143;SDS011;68165;51.920;4.492;2023-05-16T07:04:26;6.13;;;1.10;;
44143;SDS011;68165;51.920;4.492;2023-05-16T07:06:51;10.18;;;1.30;;
44143;SDS011;68165;51.920;4.492;2023-05-16T07:09:17;5.30;;;0.80;;
44143;SDS011;68165;51.920;4.492;2023-05-16T07:11:43;6.90;;;1.05;;
44143;SDS011;68165;51.920;4.492;2023-05-16T07:14:08;5.18;;;0.80;;
44143;SDS011;68165;51.920;4.492;2023-05-16T07:16:34;8.35;;;1.60;;
44143;SDS011;68165;51.920;4.492;2023-05-16T07:19:01;6.13;;;0.88;;
44143;SDS011;68165;51.920;4.492;2023-05-16T07:21:26;5.68;;;1.00;;
44143;SDS011;68165;51.920;4.492;2023-05-16T07:23:51;5.80;;;0.70;;
44143;SDS011;68165;51.920;4.492;2023-05-16T07:26:17;6.90;;;1.45;;
44143;SDS011;68165;51.920;4.492;2023-05-16T07:28:42;2.40;;;0.77;;
44143;SDS011;68165;51.920;4.492;2023-05-16T07:31:08;10.82;;;1.10;;
44143;SDS011;68165;51.920;4.492;2023-05-16T07:33:33;4.78;;;0.90;;
44143;SDS011;68165;51.920;4.492;2023-05-16T07:35:58;7.82;;;1.10;;
44143;SDS011;68165;51.920;4.492;2023-05-16T07:38:25;3.92;;;1.25;;
44143;SDS011;68165;51.920;4.492;2023-05-16T07:40:50;2.85;;;0.73;;
44143;SDS011;68165;51.920;4.492;2023-05-16T07:43:16;6.28;;;1.00;;
44143;SDS011;68165;51.920;4.492;2023-05-16T07:45:41;5.00;;;0.80;;
44143;SDS011;68165;51.920;4.492;2023-05-16T07:48:07;4.95;;;1.27;;
44143;SDS011;68165;51.920;4.492;2023-05-16T07:50:32;6.45;;;0.90;;
44143;SDS011;68165;51.920;4.492;2023-05-16T07:52:57;6.20;;;1.00;;
44143;SDS011;68165;51.920;4.492;2023-05-16T07:55:22;6.43;;;1.13;;
44143;SDS011;68165;51.920;4.492;2023-05-16T07:57:48;5.88;;;1.45;;
44143;SDS011;68165;51.920;4.492;2023-05-16T08:00:14;7.15;;;1.00;;
44143;SDS011;68165;51.920;4.492;2023-05-16T08:02:40;8.52;;;1.00;;
44143;SDS011;68165;51.920;4.492;2023-05-16T08:05:06;5.55;;;1.13;;
44143;SDS011;68165;51.920;4.492;2023-05-16T08:07:33;5.90;;;1.08;;
44143;SDS011;68165;51.920;4.492;2023-05-16T08:09:58;9.52;;;1.00;;
44143;SDS011;68165;51.920;4.492;2023-05-16T08:12:24;8.02;;;1.48;;
44143;SDS011;68165;51.920;4.492;2023-05-16T08:14:50;5.82;;;0.90;;
44143;SDS011;68165;51.920;4.492;2023-05-16T08:17:16;3.88;;;1.10;;
44143;SDS011;68165;51.920;4.492;2023-05-16T08:19:41;6.10;;;1.00;;
44143;SDS011;68165;51.920;4.492;2023-05-16T08:22:07;5.32;;;1.40;;
44143;SDS011;68165;51.920;4.492;2023-05-16T08:24:33;4.30;;;1.08;;
44143;SDS011;68165;51.920;4.492;2023-05-16T08:26:58;3.20;;;0.65;;
44143;SDS011;68165;51.920;4.492;2023-05-16T08:29:24;5.80;;;1.00;;
44143;SDS011;68165;51.920;4.492;2023-05-16T08:31:50;8.95;;;1.10;;
44143;SDS011;68165;51.920;4.492;2023-05-16T08:34:16;4.88;;;1.20;;
44143;SDS011;68165;51.920;4.492;2023-05-16T08:36:41;6.10;;;0.90;;
44143;SDS011;68165;51.920;4.492;2023-05-16T08:39:06;4.57;;;0.80;;
44143;SDS011;68165;51.920;4.492;2023-05-16T08:41:34;3.17;;;0.82;;
44143;SDS011;68165;51.920;4.492;2023-05-16T08:44:00;5.93;;;0.75;;
44143;SDS011;68165;51.920;4.492;2023-05-16T08:46:25;4.63;;;0.63;;
44143;SDS011;68165;51.920;4.492;2023-05-16T08:48:53;3.28;;;0.60;;
44143;SDS011;68165;51.920;4.492;2023-05-16T08:51:23;5.90;;;1.05;;
44143;SDS011;68165;51.920;4.492;2023-05-16T08:53:59;5.72;;;0.80;;
44143;SDS011;68165;51.920;4.492;2023-05-16T08:56:28;4.80;;;0.90;;
44143;SDS011;68165;51.920;4.492;2023-05-16T08:58:54;4.70;;;0.80;;
44143;SDS011;68165;51.920;4.492;2023-05-16T09:01:21;5.68;;;0.93;;
44143;SDS011;68165;51.920;4.492;2023-05-16T09:03:48;5.43;;;0.70;;
44143;SDS011;68165;51.920;4.492;2023-05-16T09:06:14;4.22;;;0.90;;
44143;SDS011;68165;51.920;4.492;2023-05-16T09:08:41;4.18;;;0.70;;
44143;SDS011;68165;51.920;4.492;2023-05-16T09:11:07;7.30;;;0.77;;
44143;SDS011;68165;51.920;4.492;2023-05-16T09:13:33;7.35;;;0.73;;
44143;SDS011;68165;51.920;4.492;2023-05-16T09:18:35;9.65;;;1.48;;
44143;SDS011;68165;51.920;4.492;2023-05-16T09:21:01;4.20;;;1.65;;
44143;SDS011;68165;51.920;4.492;2023-05-16T09:23:27;7.07;;;1.05;;
44143;SDS011;68165;51.920;4.492;2023-05-16T09:25:53;6.40;;;0.95;;
44143;SDS011;68165;51.920;4.492;2023-05-16T09:28:19;6.25;;;0.85;;
44143;SDS011;68165;51.920;4.492;2023-05-16T09:30:45;6.20;;;1.35;;
44143;SDS011;68165;51.920;4.492;2023-05-16T09:33:11;6.72;;;1.40;;
44143;SDS011;68165;51.920;4.492;2023-05-16T09:35:36;4.75;;;0.80;;
44143;SDS011;68165;51.920;4.492;2023-05-16T09:38:02;6.60;;;0.80;;
44143;SDS011;68165;51.920;4.492;2023-05-16T09:40:28;4.88;;;0.65;;
44143;SDS011;68165;51.920;4.492;2023-05-16T09:43:03;4.05;;;1.15;;
44143;SDS011;68165;51.920;4.492;2023-05-16T09:45:31;5.80;;;1.08;;
44143;SDS011;68165;51.920;4.492;2023-05-16T09:48:03;5.03;;;0.80;;
44143;SDS011;68165;51.920;4.492;2023-05-16T09:50:31;4.32;;;0.93;;
44143;SDS011;68165;51.920;4.492;2023-05-16T09:53:00;6.97;;;1.25;;
44143;SDS011;68165;51.920;4.492;2023-05-16T09:57:51;5.80;;;0.70;;
44143;SDS011;68165;51.920;4.492;2023-05-16T10:00:16;2.03;;;0.75;;
44143;SDS011;68165;51.920;4.492;2023-05-16T10:02:42;4.93;;;0.80;;
44143;SDS011;68165;51.920;4.492;2023-05-16T10:05:08;5.43;;;0.80;;
44143;SDS011;68165;51.920;4.492;2023-05-16T10:07:34;3.17;;;1.00;;
44143;SDS011;68165;51.920;4.492;2023-05-16T10:10:00;4.68;;;0.80;;
44143;SDS011;68165;51.920;4.492;2023-05-16T10:12:30;5.28;;;0.73;;
44143;SDS011;68165;51.920;4.492;2023-05-16T10:14:57;4.63;;;1.10;;
44143;SDS011;68165;51.920;4.492;2023-05-16T10:17:25;4.20;;;1.10;;
44143;SDS011;68165;51.920;4.492;2023-05-16T10:19:52;5.10;;;1.13;;
44143;SDS011;68165;51.920;4.492;2023-05-16T10:22:18;4.97;;;0.80;;
44143;SDS011;68165;51.920;4.492;2023-05-16T10:24:47;5.82;;;1.00;;
44143;SDS011;68165;51.920;4.492;2023-05-16T10:27:39;2.92;;;0.80;;
44143;SDS011;68165;51.920;4.492;2023-05-16T10:30:06;5.78;;;1.00;;
44143;SDS011;68165;51.920;4.492;2023-05-16T10:32:33;5.18;;;0.65;;
44143;SDS011;68165;51.920;4.492;2023-05-16T10:35:00;4.30;;;0.82;;
44143;SDS011;68165;51.920;4.492;2023-05-16T10:37:28;8.65;;;0.90;;
44143;SDS011;68165;51.920;4.492;2023-05-16T10:39:55;2.83;;;0.60;;
44143;SDS011;68165;51.920;4.492;2023-05-16T10:42:21;4.50;;;0.90;;
44143;SDS011;68165;51.920;4.492;2023-05-16T10:44:47;3.35;;;0.93;;
44143;SDS011;68165;51.920;4.492;2023-05-16T10:47:12;7.60;;;1.10;;
44143;SDS011;68165;51.920;4.492;2023-05-16T10:49:43;8.30;;;1.00;;
44143;SDS011;68165;51.920;4.492;2023-05-16T10:52:09;3.88;;;0.63;;
44143;SDS011;68165;51.920;4.492;2023-05-16T10:54:39;4.60;;;0.80;;
44143;SDS011;68165;51.920;4.492;2023-05-16T10:57:22;5.90;;;0.77;;
44143;SDS011;68165;51.920;4.492;2023-05-16T10:59:48;4.20;;;0.70;;
44143;SDS011;68165;51.920;4.492;2023-05-16T11:02:26;5.28;;;1.00;;
44143;SDS011;68165;51.920;4.492;2023-05-16T11:04:59;5.70;;;0.90;;
44143;SDS011;68165;51.920;4.492;2023-05-16T11:07:33;5.53;;;0.57;;
44143;SDS011;68165;51.920;4.492;2023-05-16T11:12:47;4.68;;;0.90;;
44143;SDS011;68165;51.920;4.492;2023-05-16T11:17:45;4.22;;;0.85;;
44143;SDS011;68165;51.920;4.492;2023-05-16T11:20:44;6.18;;;0.70;;
44143;SDS011;68165;51.920;4.492;2023-05-16T11:23:22;7.38;;;1.40;;
44143;SDS011;68165;51.920;4.492;2023-05-16T11:25:53;4.07;;;1.15;;
44143;SDS011;68165;51.920;4.492;2023-05-16T11:28:21;6.18;;;0.93;;
44143;SDS011;68165;51.920;4.492;2023-05-16T11:30:49;4.45;;;0.90;;
44143;SDS011;68165;51.920;4.492;2023-05-16T11:33:17;5.30;;;0.80;;
44143;SDS011;68165;51.920;4.492;2023-05-16T11:35:43;1.98;;;0.85;;
44143;SDS011;68165;51.920;4.492;2023-05-16T11:38:23;5.55;;;1.05;;
44143;SDS011;68165;51.920;4.492;2023-05-16T11:40:49;6.07;;;0.98;;
44143;SDS011;68165;51.920;4.492;2023-05-16T11:43:17;7.15;;;0.90;;
44143;SDS011;68165;51.920;4.492;2023-05-16T11:45:43;2.47;;;0.65;;
44143;SDS011;68165;51.920;4.492;2023-05-16T11:48:09;3.25;;;0.95;;
44143;SDS011;68165;51.920;4.492;2023-05-16T11:50:35;4.55;;;1.02;;
44143;SDS011;68165;51.920;4.492;2023-05-16T11:53:00;6.15;;;0.98;;
44143;SDS011;68165;51.920;4.492;2023-05-16T11:55:26;3.78;;;0.75;;
44143;SDS011;68165;51.920;4.492;2023-05-16T11:57:58;5.55;;;0.70;;
44143;SDS011;68165;51.920;4.492;2023-05-16T12:00:24;8.18;;;1.60;;
44143;SDS011;68165;51.920;4.492;2023-05-16T12:02:51;3.17;;;0.80;;
44143;SDS011;68165;51.920;4.492;2023-05-16T12:05:24;4.75;;;0.77;;
44143;SDS011;68165;51.920;4.492;2023-05-16T12:07:52;3.25;;;0.50;;
44143;SDS011;68165;51.920;4.492;2023-05-16T12:10:18;3.40;;;0.85;;
44143;SDS011;68165;51.920;4.492;2023-05-16T12:12:49;3.88;;;0.95;;
44143;SDS011;68165;51.920;4.492;2023-05-16T12:15:16;5.45;;;1.00;;
44143;SDS011;68165;51.920;4.492;2023-05-16T12:17:42;4.38;;;0.80;;
44143;SDS011;68165;51.920;4.492;2023-05-16T12:20:08;4.45;;;0.90;;
44143;SDS011;68165;51.920;4.492;2023-05-16T12:22:44;2.97;;;1.30;;
44143;SDS011;68165;51.920;4.492;2023-05-16T12:25:29;5.13;;;1.50;;
44143;SDS011;68165;51.920;4.492;2023-05-16T12:28:00;4.40;;;0.80;;
44143;SDS011;68165;51.920;4.492;2023-05-16T12:30:27;2.95;;;0.73;;
44143;SDS011;68165;51.920;4.492;2023-05-16T12:33:00;4.93;;;0.70;;
44143;SDS011;68165;51.920;4.492;2023-05-16T12:35:40;4.80;;;1.05;;
44143;SDS011;68165;51.920;4.492;2023-05-16T12:38:07;5.65;;;0.98;;
44143;SDS011;68165;51.920;4.492;2023-05-16T12:40:38;5.22;;;1.20;;
44143;SDS011;68165;51.920;4.492;2023-05-16T12:43:11;3.97;;;0.77;;
44143;SDS011;68165;51.920;4.492;2023-05-16T12:45:41;4.85;;;0.70;;
44143;SDS011;68165;51.920;4.492;2023-05-16T12:48:12;6.13;;;1.50;;
44143;SDS011;68165;51.920;4.492;2023-05-16T12:50:38;3.42;;;0.80;;
44143;SDS011;68165;51.920;4.492;2023-05-16T12:53:04;6.82;;;0.80;;
44143;SDS011;68165;51.920;4.492;2023-05-16T12:55:36;4.90;;;1.10;;
44143;SDS011;68165;51.920;4.492;2023-05-16T12:58:02;5.18;;;0.93;;
44143;SDS011;68165;51.920;4.492;2023-05-16T13:00:27;7.28;;;0.93;;
44143;SDS011;68165;51.920;4.492;2023-05-16T13:02:52;2.45;;;0.50;;
44143;SDS011;68165;51.920;4.492;2023-05-16T13:05:18;6.57;;;1.00;;
44143;SDS011;68165;51.920;4.492;2023-05-16T13:07:46;5.50;;;0.95;;
44143;SDS011;68165;51.920;4.492;2023-05-16T13:10:11;2.90;;;1.10;;
44143;SDS011;68165;51.920;4.492;2023-05-16T13:12:37;5.20;;;1.05;;
44143;SDS011;68165;51.920;4.492;2023-05-16T13:15:04;4.53;;;1.00;;
44143;SDS011;68165;51.920;4.492;2023-05-16T13:17:32;3.70;;;0.70;;
44143;SDS011;68165;51.920;4.492;2023-05-16T13:20:01;3.63;;;0.80;;
44143;SDS011;68165;51.920;4.492;2023-05-16T13:22:32;6.22;;;1.15;;
44143;SDS011;68165;51.920;4.492;2023-05-16T13:24:57;4.35;;;0.77;;
44143;SDS011;68165;51.920;4.492;2023-05-16T13:27:23;8.10;;;1.10;;
44143;SDS011;68165;51.920;4.492;2023-05-16T13:29:48;4.22;;;0.77;;
44143;SDS011;68165;51.920;4.492;2023-05-16T13:32:13;5.45;;;0.80;;
44143;SDS011;68165;51.920;4.492;2023-05-16T13:34:39;3.03;;;0.60;;
44143;SDS011;68165;51.920;4.492;2023-05-16T13:37:04;2.88;;;0.63;;
44143;SDS011;68165;51.920;4.492;2023-05-16T13:39:29;6.80;;;1.13;;
44143;SDS011;68165;51.920;4.492;2023-05-16T13:41:55;4.25;;;0.57;;
44143;SDS011;68165;51.920;4.492;2023-05-16T13:44:20;5.57;;;0.95;;
44143;SDS011;68165;51.920;4.492;2023-05-16T13:46:46;3.45;;;0.60;;
44143;SDS011;68165;51.920;4.492;2023-05-16T13:49:11;4.50;;;0.85;;
44143;SDS011;68165;51.920;4.492;2023-05-16T13:51:37;3.42;;;0.70;;
44143;SDS011;68165;51.920;4.492;2023-05-16T13:54:03;4.57;;;0.93;;
44143;SDS011;68165;51.920;4.492;2023-05-16T13:56:28;3.85;;;0.68;;
44143;SDS011;68165;51.920;4.492;2023-05-16T13:58:53;3.33;;;0.93;;
44143;SDS011;68165;51.920;4.492;2023-05-16T14:01:19;2.63;;;0.70;;
44143;SDS011;68165;51.920;4.492;2023-05-16T14:03:45;2.75;;;0.70;;
44143;SDS011;68165;51.920;4.492;2023-05-16T14:06:10;2.17;;;0.63;;
44143;SDS011;68165;51.920;4.492;2023-05-16T14:08:36;3.47;;;0.63;;
44143;SDS011;68165;51.920;4.492;2023-05-16T14:11:01;5.43;;;1.20;;
44143;SDS011;68165;51.920;4.492;2023-05-16T14:13:27;6.35;;;1.02;;
44143;SDS011;68165;51.920;4.492;2023-05-16T14:15:52;4.30;;;0.52;;
44143;SDS011;68165;51.920;4.492;2023-05-16T14:18:18;4.05;;;0.77;;
44143;SDS011;68165;51.920;4.492;2023-05-16T14:20:43;0.63;;;0.45;;
44143;SDS011;68165;51.920;4.492;2023-05-16T14:23:08;5.15;;;0.90;;
44143;SDS011;68165;51.920;4.492;2023-05-16T14:25:34;1.92;;;0.60;;
44143;SDS011;68165;51.920;4.492;2023-05-16T14:27:59;5.47;;;1.38;;
44143;SDS011;68165;51.920;4.492;2023-05-16T14:30:24;6.80;;;0.73;;
44143;SDS011;68165;51.920;4.492;2023-05-16T14:32:50;3.85;;;0.70;;
44143;SDS011;68165;51.920;4.492;2023-05-16T14:35:16;8.75;;;0.88;;
44143;SDS011;68165;51.920;4.492;2023-05-16T14:37:41;3.72;;;1.10;;
44143;SDS011;68165;51.920;4.492;2023-05-16T14:40:07;7.72;;;0.95;;
44143;SDS011;68165;51.920;4.492;2023-05-16T14:42:33;3.45;;;1.30;;
44143;SDS011;68165;51.920;4.492;2023-05-16T14:44:58;3.08;;;0.60;;
44143;SDS011;68165;51.920;4.492;2023-05-16T14:47:24;4.90;;;0.70;;
44143;SDS011;68165;51.920;4.492;2023-05-16T14:49:49;2.30;;;0.60;;
44143;SDS011;68165;51.920;4.492;2023-05-16T14:52:16;3.83;;;0.95;;
44143;SDS011;68165;51.920;4.492;2023-05-16T14:54:42;3.70;;;0.85;;
44143;SDS011;68165;51.920;4.492;2023-05-16T14:57:07;3.10;;;0.70;;
44143;SDS011;68165;51.920;4.492;2023-05-16T14:59:33;4.45;;;0.73;;
44143;SDS011;68165;51.920;4.492;2023-05-16T15:01:58;1.80;;;0.50;;
44143;SDS011;68165;51.920;4.492;2023-05-16T15:04:24;4.53;;;1.05;;
44143;SDS011;68165;51.920;4.492;2023-05-16T15:06:51;5.40;;;0.95;;
44143;SDS011;68165;51.920;4.492;2023-05-16T15:09:16;4.13;;;1.05;;
44143;SDS011;68165;51.920;4.492;2023-05-16T15:11:43;4.72;;;1.02;;